Time;durP1;ratioP1;P1;durP2;ratioP2;P2;SDS_P1;SDS_P2;PMS_P1;PMS_P2;Temp;Humidity;BMP_temperature;BMP_pressure;BME280_temperature;BME280_humidity;BME280_pressure;Samples;Min_cycle;Max_cycle;Signal;HPM_P1;HPM_P2
2022/05/23 00:01:15;;;;;;;3.53;3.10;;;18.70;34.20;;;;;;6215548;23;20130;-85
2022/05/23 00:03:41;;;;;;;3.10;2.80;;;18.70;34.40;;;;;;6190189;23;20469;-85
2022/05/23 00:06:06;;;;;;;3.15;2.83;;;18.60;34.20;;;;;;6216972;23;20130;-85
2022/05/23 00:08:32;;;;;;;3.50;3.20;;;18.60;34.20;;;;;;6215282;23;20130;-85
2022/05/23 00:10:58;;;;;;;3.20;2.90;;;18.60;34.20;;;;;;6190675;23;20130;-85
2022/05/23 00:13:23;;;;;;;3.00;2.70;;;18.60;34.20;;;;;;6190914;23;20134;-85
2022/05/23 00:15:49;;;;;;;3.58;3.08;;;18.60;34.20;;;;;;6215416;23;20137;-85
2022/05/23 00:18:15;;;;;;;3.30;3.00;;;18.60;34.20;;;;;;6215182;23;20138;-85
2022/05/23 00:20:41;;;;;;;3.03;2.72;;;18.60;34.20;;;;;;6165421;23;20142;-85
2022/05/23 00:23:07;;;;;;;3.20;2.90;;;18.60;34.30;;;;;;6217014;23;20185;-85
2022/05/23 00:25:32;;;;;;;3.38;3.08;;;18.60;34.30;;;;;;6165456;23;20146;-85
2022/05/23 00:27:58;;;;;;;3.15;2.85;;;18.60;34.30;;;;;;6165424;23;20576;-85
2022/05/23 00:30:25;;;;;;;3.15;2.85;;;18.60;34.30;;;;;;6190444;23;20557;-85
2022/05/23 00:35:32;;;;;;;3.63;3.00;;;18.60;34.40;;;;;;6194186;23;20157;-85
2022/05/23 00:37:58;;;;;;;3.72;3.15;;;18.60;34.40;;;;;;6243363;23;20268;-85
2022/05/23 00:40:35;;;;;;;3.15;2.85;;;18.60;34.40;;;;;;6195658;23;20153;-85
2022/05/23 00:43:17;;;;;;;3.47;3.17;;;18.60;34.50;;;;;;6196618;23;20175;-85
2022/05/23 00:45:50;;;;;;;3.50;3.10;;;18.60;34.50;;;;;;6220126;23;20146;-85
2022/05/23 00:48:17;;;;;;;3.28;2.97;;;18.60;34.60;;;;;;6196378;23;20580;-85
2022/05/23 00:50:46;;;;;;;3.40;3.00;;;18.60;34.60;;;;;;6195053;23;20145;-85
2022/05/23 00:53:12;;;;;;;3.20;2.88;;;18.60;34.70;;;;;;6219938;23;20133;-85
2022/05/23 00:55:40;;;;;;;3.25;2.95;;;18.60;34.70;;;;;;6220250;23;20213;-85
2022/05/23 00:58:10;;;;;;;3.35;3.00;;;18.60;34.80;;;;;;6219969;23;20192;-85
2022/05/23 01:00:36;;;;;;;3.33;3.03;;;18.50;34.80;;;;;;6170435;23;20191;-85
2022/05/23 01:03:06;;;;;;;3.17;2.67;;;18.60;34.80;;;;;;6170559;23;20145;-85
2022/05/23 01:05:33;;;;;;;3.20;2.90;;;18.60;34.80;;;;;;6170631;23;20453;-85
2022/05/23 01:07:59;;;;;;;3.75;2.78;;;18.60;34.80;;;;;;6170046;23;20152;-86
2022/05/23 01:10:25;;;;;;;3.05;2.75;;;18.60;34.80;;;;;;6220682;23;20129;-85
2022/05/23 01:12:51;;;;;;;3.47;3.15;;;18.60;34.80;;;;;;6195041;23;20472;-85
2022/05/23 01:15:19;;;;;;;3.53;3.00;;;18.60;34.80;;;;;;6220153;23;20133;-85
2022/05/23 01:17:45;;;;;;;3.33;2.80;;;18.60;34.80;;;;;;6170145;23;20246;-85
2022/05/23 01:20:11;;;;;;;3.35;2.95;;;18.60;34.80;;;;;;6170136;23;20145;-85
2022/05/23 01:22:59;;;;;;;3.33;3.03;;;18.60;34.90;;;;;;6170426;23;20145;-85
2022/05/23 01:25:31;;;;;;;3.53;3.13;;;18.60;34.90;;;;;;6246405;23;20125;-85
2022/05/23 01:27:56;;;;;;;3.17;2.88;;;18.60;34.90;;;;;;6195040;23;20214;-85
2022/05/23 01:30:22;;;;;;;2.95;2.65;;;18.60;34.90;;;;;;6246398;23;20138;-85
2022/05/23 01:32:48;;;;;;;3.20;2.90;;;18.50;35.00;;;;;;6220130;23;20136;-85
2022/05/23 01:35:13;;;;;;;3.58;2.75;;;18.60;35.00;;;;;;6246407;23;20134;-85
2022/05/23 01:37:39;;;;;;;3.75;2.63;;;18.50;35.00;;;;;;6194261;23;20644;-85
2022/05/23 01:40:06;;;;;;;3.38;2.88;;;18.60;35.00;;;;;;6194674;23;20554;-85
2022/05/23 01:42:32;;;;;;;3.63;3.10;;;18.60;35.80;;;;;;6194822;23;20157;-86
2022/05/23 01:44:58;;;;;;;3.83;2.83;;;18.60;35.10;;;;;;6219658;23;20133;-85
2022/05/23 01:47:23;;;;;;;2.92;2.65;;;18.60;35.10;;;;;;6219494;23;20134;-85
2022/05/23 01:49:49;;;;;;;3.20;2.92;;;18.50;35.10;;;;;;6194672;23;20228;-85
2022/05/23 01:52:15;;;;;;;2.95;2.70;;;18.50;35.10;;;;;;6170243;23;20156;-85
2022/05/23 01:54:40;;;;;;;3.20;2.88;;;18.50;35.20;;;;;;6194469;23;20659;-85
2022/05/23 01:57:08;;;;;;;3.25;2.95;;;18.50;35.20;;;;;;6219669;23;20214;-85
2022/05/23 02:02:16;;;;;;;3.25;2.95;;;18.50;35.30;;;;;;6202022;23;20216;-86
2022/05/23 02:04:42;;;;;;;3.58;3.13;;;18.50;35.30;;;;;;6219965;23;20557;-85
2022/05/23 02:07:08;;;;;;;3.05;2.75;;;18.50;35.30;;;;;;6219487;23;20183;-86
2022/05/23 02:09:34;;;;;;;3.40;2.90;;;18.50;35.30;;;;;;6169539;23;20146;-85
2022/05/23 02:11:59;;;;;;;2.97;2.67;;;18.50;35.30;;;;;;6194673;23;20149;-85
2022/05/23 02:14:25;;;;;;;3.47;2.95;;;18.40;35.30;;;;;;6219519;23;20133;-86
2022/05/23 02:16:51;;;;;;;4.30;3.05;;;18.50;35.40;;;;;;6246091;23;20470;-85
2022/05/23 02:19:16;;;;;;;3.47;3.17;;;18.50;35.40;;;;;;6219271;23;20129;-85
2022/05/23 02:21:42;;;;;;;3.17;2.88;;;18.50;35.40;;;;;;6194268;23;20145;-85
2022/05/23 02:24:08;;;;;;;3.22;2.92;;;18.50;35.50;;;;;;6194259;23;20149;-85
2022/05/23 02:26:33;;;;;;;3.72;3.00;;;18.50;35.50;;;;;;6194254;23;20478;-85
2022/05/23 02:28:59;;;;;;;3.30;3.00;;;18.50;35.50;;;;;;6196234;23;20129;-86
2022/05/23 02:31:25;;;;;;;3.30;2.85;;;18.50;35.50;;;;;;6172465;23;20191;-85
2022/05/23 02:33:51;;;;;;;2.92;2.63;;;18.60;35.60;;;;;;6221548;23;20144;-85
2022/05/23 02:36:16;;;;;;;3.13;2.80;;;18.50;35.50;;;;;;6221048;23;20195;-85
2022/05/23 02:38:42;;;;;;;3.20;2.90;;;18.50;35.50;;;;;;6247984;23;20130;-85
2022/05/23 02:41:08;;;;;;;2.65;2.42;;;18.50;35.60;;;;;;6248088;23;20140;-85
2022/05/23 02:43:33;;;;;;;3.25;2.85;;;18.40;35.60;;;;;;6221240;23;20168;-85
2022/05/23 02:45:59;;;;;;;2.75;2.55;;;18.50;35.70;;;;;;6196399;23;20184;-85
2022/05/23 02:48:24;;;;;;;3.20;2.90;;;18.50;35.70;;;;;;6221264;23;20134;-85
2022/05/23 02:50:50;;;;;;;3.15;2.85;;;18.40;35.60;;;;;;6196429;23;20176;-85
2022/05/23 02:53:16;;;;;;;3.72;2.92;;;18.50;35.80;;;;;;6221269;23;20130;-85
2022/05/23 02:55:41;;;;;;;3.05;2.75;;;18.50;35.80;;;;;;6221328;23;20140;-85
2022/05/23 02:58:07;;;;;;;3.80;3.20;;;18.50;35.80;;;;;;6247869;23;20175;-85
2022/05/23 03:00:34;;;;;;;3.22;2.92;;;18.50;35.80;;;;;;6221048;23;20209;-86
2022/05/23 03:03:03;;;;;;;3.22;2.92;;;18.50;35.80;;;;;;6171652;23;20599;-85
2022/05/23 03:05:31;;;;;;;3.03;2.60;;;18.50;35.80;;;;;;6172678;23;20141;-85
2022/05/23 03:07:56;;;;;;;3.13;2.83;;;18.50;35.90;;;;;;6171422;23;20153;-85
2022/05/23 03:10:22;;;;;;;3.17;2.88;;;18.50;35.90;;;;;;6221420;23;20134;-85
2022/05/23 03:12:48;;;;;;;3.25;2.95;;;18.40;35.80;;;;;;6171266;23;20145;-85
2022/05/23 03:15:13;;;;;;;3.33;3.03;;;18.50;35.80;;;;;;6171370;23;20137;-86
2022/05/23 03:17:39;;;;;;;3.10;2.75;;;18.50;35.90;;;;;;6171220;23;20177;-85
2022/05/23 03:20:05;;;;;;;3.20;2.90;;;18.50;35.90;;;;;;6171516;23;20164;-85
2022/05/23 03:27:50;;;;;;;3.13;2.83;;;18.50;36.00;;;;;;6202169;23;20141;-86
2022/05/23 03:30:16;;;;;;;3.38;3.08;;;18.50;35.90;;;;;;6171415;23;20173;-86
2022/05/23 03:32:42;;;;;;;3.30;3.00;;;18.50;36.00;;;;;;6171232;23;20149;-85
2022/05/23 03:35:08;;;;;;;3.35;3.05;;;18.50;36.10;;;;;;6195851;23;20134;-85
2022/05/23 03:37:36;;;;;;;3.15;2.83;;;18.50;36.10;;;;;;6170523;23;20193;-85
2022/05/23 03:40:03;;;;;;;3.00;2.70;;;18.50;36.00;;;;;;6170336;23;20141;-85
2022/05/23 03:42:29;;;;;;;3.08;2.78;;;18.40;36.00;;;;;;6171480;23;20145;-86
2022/05/23 03:44:55;;;;;;;3.08;2.75;;;18.50;36.00;;;;;;6195612;23;20469;-85
2022/05/23 03:47:21;;;;;;;3.05;2.70;;;18.50;36.00;;;;;;6195647;23;20141;-85
2022/05/23 03:49:47;;;;;;;3.13;2.80;;;18.50;35.90;;;;;;6221102;23;20480;-85
2022/05/23 03:52:12;;;;;;;3.63;3.20;;;18.50;36.00;;;;;;6220711;23;20137;-85
2022/05/23 03:54:38;;;;;;;3.05;2.75;;;18.50;36.00;;;;;;6170555;23;20137;-85
2022/05/23 03:57:04;;;;;;;3.10;2.80;;;18.50;36.00;;;;;;6171502;23;20170;-85
2022/05/23 03:59:29;;;;;;;3.38;3.08;;;18.60;36.00;;;;;;6171211;23;20142;-85
2022/05/23 04:01:58;;;;;;;3.25;2.92;;;18.50;36.00;;;;;;6170866;23;20152;-85
2022/05/23 04:04:25;;;;;;;2.97;2.67;;;18.60;36.00;;;;;;6172761;23;20165;-85
2022/05/23 04:06:51;;;;;;;3.00;2.70;;;18.60;36.00;;;;;;6220935;23;20142;-85
2022/05/23 04:09:17;;;;;;;3.15;2.72;;;18.60;36.00;;;;;;6220610;23;20207;-85
2022/05/23 04:11:43;;;;;;;3.20;2.60;;;18.60;35.90;;;;;;6220499;23;20130;-85
2022/05/23 04:14:08;;;;;;;2.97;2.67;;;18.60;36.00;;;;;;6195204;23;20130;-85
2022/05/23 04:16:34;;;;;;;3.40;2.95;;;18.70;36.00;;;;;;6195367;23;20175;-85
2022/05/23 04:19:04;;;;;;;2.92;2.65;;;18.60;36.00;;;;;;6247214;23;20140;-85
2022/05/23 04:21:29;;;;;;;2.72;2.53;;;18.60;36.00;;;;;;6196067;23;20201;-86
2022/05/23 04:23:55;;;;;;;3.00;2.70;;;18.60;36.00;;;;;;6196002;23;20523;-85
2022/05/23 04:26:20;;;;;;;3.22;2.92;;;18.60;36.00;;;;;;6170675;23;20146;-85
2022/05/23 04:28:46;;;;;;;3.50;2.47;;;18.70;36.00;;;;;;6170781;23;20617;-85
2022/05/23 04:31:12;;;;;;;3.05;2.75;;;18.60;36.00;;;;;;6220668;23;20133;-85
2022/05/23 04:36:14;;;;;;;3.00;2.75;;;18.60;36.10;;;;;;6222454;23;20246;-85
2022/05/23 04:38:39;;;;;;;2.95;2.65;;;18.60;36.10;;;;;;6170455;23;20544;-85
2022/05/23 04:41:06;;;;;;;3.00;2.70;;;18.60;36.10;;;;;;6170470;23;20512;-85
2022/05/23 04:43:32;;;;;;;3.08;2.78;;;18.70;36.20;;;;;;6170473;23;20180;-85
2022/05/23 04:45:57;;;;;;;3.22;2.60;;;18.70;36.10;;;;;;6171465;23;20296;-85
2022/05/23 04:51:09;;;;;;;2.83;2.50;;;18.70;36.10;;;;;;6224169;23;20155;-85
2022/05/23 04:53:34;;;;;;;3.20;2.90;;;18.70;36.10;;;;;;6246705;23;20205;-84
2022/05/23 04:56:00;;;;;;;3.50;2.72;;;18.70;36.20;;;;;;6246648;23;20157;-84
2022/05/23 04:58:27;;;;;;;3.10;2.80;;;18.60;36.20;;;;;;6219968;23;20149;-84
2022/05/23 05:00:53;;;;;;;2.58;2.38;;;18.70;36.20;;;;;;6246666;23;20137;-84
2022/05/23 05:03:19;;;;;;;3.20;2.85;;;18.80;36.10;;;;;;6247040;23;20129;-84
2022/05/23 05:05:45;;;;;;;3.05;2.75;;;18.70;36.10;;;;;;6195081;23;20532;-84
2022/05/23 05:08:11;;;;;;;3.00;2.70;;;18.70;36.10;;;;;;6170681;23;20202;-84
2022/05/23 05:10:36;;;;;;;2.85;2.55;;;18.70;36.10;;;;;;6170468;23;20146;-84
2022/05/23 05:13:02;;;;;;;3.05;2.75;;;18.70;36.10;;;;;;6194624;23;20268;-84
2022/05/23 05:15:28;;;;;;;3.10;2.80;;;18.70;36.20;;;;;;6170415;23;20550;-85
2022/05/23 05:17:54;;;;;;;2.83;2.58;;;18.80;36.20;;;;;;6219822;23;20172;-84
2022/05/23 05:20:20;;;;;;;3.10;2.80;;;18.70;36.20;;;;;;6169946;23;20149;-84
2022/05/23 05:22:46;;;;;;;2.80;2.53;;;18.70;36.20;;;;;;6218889;23;20561;-84
2022/05/23 05:25:12;;;;;;;3.22;2.90;;;18.70;36.20;;;;;;6169783;23;20208;-84
2022/05/23 05:27:38;;;;;;;3.00;2.70;;;18.70;36.20;;;;;;6220010;23;20185;-84
2022/05/23 05:30:05;;;;;;;3.20;2.90;;;18.70;36.10;;;;;;6194533;23;20133;-84
2022/05/23 05:32:44;;;;;;;2.70;2.50;;;18.70;36.20;;;;;;6194927;23;20138;-85
2022/05/23 05:35:23;;;;;;;3.10;2.80;;;18.80;36.20;;;;;;6196718;23;20137;-85
2022/05/23 05:37:52;;;;;;;3.13;2.83;;;18.70;36.10;;;;;;6195617;23;20189;-85
2022/05/23 05:40:19;;;;;;;3.05;2.75;;;18.80;36.20;;;;;;6195031;23;20153;-85
2022/05/23 05:42:47;;;;;;;2.70;2.50;;;18.80;36.10;;;;;;6194924;23;20165;-84
2022/05/23 05:45:17;;;;;;;2.70;2.50;;;18.80;36.20;;;;;;6195120;23;20126;-84
2022/05/23 05:47:46;;;;;;;3.40;2.75;;;18.90;36.30;;;;;;6196207;23;20279;-85
2022/05/23 05:50:16;;;;;;;3.00;2.70;;;18.80;36.10;;;;;;6170736;23;20595;-85
2022/05/23 05:52:41;;;;;;;2.75;2.55;;;18.80;36.10;;;;;;6195274;23;20176;-85
2022/05/23 05:55:07;;;;;;;2.80;2.53;;;18.80;36.00;;;;;;6169570;23;20134;-84
2022/05/23 05:57:33;;;;;;;2.67;2.47;;;18.90;35.90;;;;;;6219467;23;20161;-84
2022/05/23 05:59:59;;;;;;;2.70;2.50;;;18.90;35.90;;;;;;6169964;23;20171;-84
2022/05/23 06:02:25;;;;;;;2.60;2.40;;;18.90;35.80;;;;;;6169011;23;20568;-84
2022/05/23 06:04:50;;;;;;;2.90;2.60;;;18.90;35.90;;;;;;6219324;23;20129;-84
2022/05/23 06:12:37;;;;;;;2.53;2.33;;;18.90;36.00;;;;;;6199635;23;20133;-84
2022/05/23 06:15:02;;;;;;;2.90;2.65;;;18.90;36.00;;;;;;6168784;23;20144;-84
2022/05/23 06:17:28;;;;;;;3.33;2.58;;;18.90;36.00;;;;;;6168572;23;20209;-84
2022/05/23 06:19:54;;;;;;;2.97;2.65;;;18.90;35.90;;;;;;6168767;23;20561;-84
2022/05/23 06:22:20;;;;;;;2.60;2.40;;;18.90;36.00;;;;;;6194115;23;20245;-85
2022/05/23 06:24:46;;;;;;;2.80;2.60;;;18.90;36.00;;;;;;6194577;23;20213;-84
2022/05/23 06:27:11;;;;;;;2.85;2.53;;;18.90;36.00;;;;;;6219397;23;20251;-84
2022/05/23 06:29:38;;;;;;;2.45;2.25;;;18.90;36.10;;;;;;6219411;23;20587;-84
2022/05/23 06:32:04;;;;;;;2.65;2.45;;;18.80;36.10;;;;;;6170090;23;20596;-84
2022/05/23 06:34:30;;;;;;;2.50;2.30;;;18.90;36.10;;;;;;6195501;23;20191;-84
2022/05/23 06:36:56;;;;;;;2.85;2.50;;;18.90;36.10;;;;;;6246178;23;20639;-84
2022/05/23 06:39:22;;;;;;;2.53;2.33;;;18.90;36.10;;;;;;6170095;23;20180;-84
2022/05/23 06:41:47;;;;;;;2.60;2.40;;;19.00;36.10;;;;;;6220714;23;20136;-84
2022/05/23 06:44:13;;;;;;;2.78;2.58;;;18.90;36.10;;;;;;6173053;23;20157;-84
2022/05/23 06:46:40;;;;;;;2.60;2.40;;;19.00;36.00;;;;;;6171621;23;20153;-84
2022/05/23 06:49:06;;;;;;;2.90;2.60;;;19.00;36.10;;;;;;6199117;23;20133;-83
2022/05/23 06:51:33;;;;;;;2.60;2.40;;;18.90;36.10;;;;;;6177030;23;20146;-85
2022/05/23 06:53:59;;;;;;;3.78;2.60;;;19.00;36.20;;;;;;6180161;23;20149;-84
2022/05/23 06:56:28;;;;;;;2.80;2.50;;;19.00;36.20;;;;;;6179466;23;20256;-84
2022/05/23 06:58:54;;;;;;;2.55;2.35;;;18.90;36.20;;;;;;6207852;23;20203;-84
2022/05/23 07:01:28;;;;;;;2.70;2.50;;;18.90;36.30;;;;;;6181384;23;20134;-84
2022/05/23 07:03:53;;;;;;;2.53;2.33;;;19.00;36.30;;;;;;6203943;23;20157;-85
2022/05/23 07:14:38;;;;;;;2.60;2.40;;;19.10;36.20;;;;;;6230335;23;20160;-84
2022/05/23 07:17:05;;;;;;;3.08;2.70;;;19.10;36.30;;;;;;6161546;23;20206;-84
2022/05/23 07:19:31;;;;;;;2.58;2.38;;;19.10;36.30;;;;;;6136502;23;20148;-84
2022/05/23 07:21:59;;;;;;;2.50;2.30;;;19.10;36.20;;;;;;6135835;23;20182;-84
2022/05/23 07:24:26;;;;;;;2.70;2.50;;;19.10;36.10;;;;;;6135160;23;20131;-84
2022/05/23 07:26:54;;;;;;;2.60;2.40;;;19.10;36.10;;;;;;6133580;23;20159;-84
2022/05/23 07:29:24;;;;;;;2.60;2.40;;;19.10;36.20;;;;;;6108891;23;20195;-84
2022/05/23 07:31:50;;;;;;;2.80;2.55;;;19.10;36.20;;;;;;6134262;23;20239;-84
2022/05/23 07:34:16;;;;;;;2.63;2.30;;;19.10;36.20;;;;;;6108676;23;20182;-83
2022/05/23 07:36:41;;;;;;;2.60;2.40;;;19.10;36.40;;;;;;6132559;23;20227;-84
2022/05/23 07:39:08;;;;;;;2.65;2.45;;;19.10;36.40;;;;;;6133368;23;20181;-85
2022/05/23 07:41:35;;;;;;;2.80;2.33;;;19.10;36.40;;;;;;6131920;23;20152;-84
2022/05/23 07:44:01;;;;;;;2.40;2.13;;;19.10;36.30;;;;;;6132788;23;20171;-85
2022/05/23 07:46:46;;;;;;;2.70;2.50;;;19.10;36.20;;;;;;6131916;23;20139;-84
2022/05/23 07:49:14;;;;;;;2.70;2.50;;;19.10;36.20;;;;;;6214622;23;20224;-84
2022/05/23 07:51:40;;;;;;;2.95;2.55;;;19.10;36.40;;;;;;6167762;23;20146;-84
2022/05/23 08:02:07;;;;;;;2.85;2.60;;;19.20;36.40;;;;;;6216126;23;20130;-83
2022/05/23 08:04:33;;;;;;;3.03;2.30;;;19.20;36.40;;;;;;6191815;23;20180;-84
2022/05/23 08:06:59;;;;;;;2.88;2.40;;;19.20;36.50;;;;;;6218353;23;20130;-85
2022/05/23 08:09:27;;;;;;;3.65;2.13;;;19.10;36.50;;;;;;6193647;23;20134;-83
2022/05/23 08:11:57;;;;;;;3.38;2.35;;;19.20;36.40;;;;;;6217073;23;20525;-84
2022/05/23 08:14:27;;;;;;;2.70;2.47;;;19.20;36.40;;;;;;6164513;23;20151;-86
2022/05/23 08:16:52;;;;;;;2.55;2.22;;;19.20;36.40;;;;;;6160534;23;20270;-84
2022/05/23 08:19:18;;;;;;;2.60;2.40;;;19.20;36.40;;;;;;6160433;23;20154;-85
2022/05/23 08:21:48;;;;;;;2.90;2.60;;;19.30;36.50;;;;;;6162538;23;20134;-84
2022/05/23 08:24:14;;;;;;;3.10;2.22;;;19.30;36.40;;;;;;6162152;23;20245;-84
2022/05/23 08:26:40;;;;;;;2.50;2.30;;;19.30;36.50;;;;;;6136769;23;20151;-85
2022/05/23 08:29:06;;;;;;;2.60;2.40;;;19.20;36.40;;;;;;6162589;23;20205;-82
2022/05/23 08:31:31;;;;;;;2.25;2.05;;;19.20;36.40;;;;;;6162420;23;20502;-84
2022/05/23 08:34:01;;;;;;;2.50;2.30;;;19.40;36.50;;;;;;6137526;23;20155;-84
2022/05/23 08:36:26;;;;;;;2.28;2.08;;;19.40;36.30;;;;;;6161041;23;20277;-84
2022/05/23 08:38:55;;;;;;;2.92;2.65;;;19.40;36.40;;;;;;6160894;23;20516;-85
2022/05/23 08:41:24;;;;;;;2.50;2.30;;;19.40;36.40;;;;;;6135153;23;20139;-84
2022/05/23 08:43:52;;;;;;;2.55;2.30;;;19.40;36.40;;;;;;6136801;23;20689;-84
2022/05/23 08:46:41;;;;;;;3.35;2.30;;;19.30;36.30;;;;;;6191861;23;20209;-84
2022/05/23 08:49:23;;;;;;;3.85;2.80;;;19.40;36.50;;;;;;6198026;23;20192;-85
2022/05/23 08:51:57;;;;;;;3.55;2.25;;;19.40;36.30;;;;;;6175105;23;20146;-85
2022/05/23 08:54:27;;;;;;;2.60;2.22;;;19.40;36.40;;;;;;6193068;23;20208;-85
2022/05/23 08:56:59;;;;;;;2.60;2.25;;;19.40;36.40;;;;;;6194936;23;20165;-84
2022/05/23 08:59:31;;;;;;;4.53;2.55;;;19.40;36.60;;;;;;6171901;23;20204;-84
2022/05/23 09:02:00;;;;;;;10.73;2.90;;;19.30;36.80;;;;;;6219233;23;20623;-84
2022/05/23 09:04:51;;;;;;;4.63;2.58;;;19.20;36.90;;;;;;6195186;23;20126;-85
2022/05/23 09:07:24;;;;;;;5.15;2.47;;;19.30;37.50;;;;;;6196475;23;20562;-85
2022/05/23 09:09:50;;;;;;;3.10;2.50;;;19.40;37.00;;;;;;6191846;23;20139;-85
2022/05/23 09:13:04;;;;;;;5.22;2.45;;;19.40;37.10;;;;;;6165519;23;20196;-85
2022/05/23 09:15:09;;;;;;;3.58;2.30;;;19.40;36.90;;;;;;6188269;23;20196;-85
2022/05/23 09:17:39;;;;;;;4.43;2.80;;;19.40;36.90;;;;;;6215288;23;20177;-84
2022/05/23 09:20:09;;;;;;;4.30;2.50;;;19.40;37.00;;;;;;6215178;23;20169;-85
2022/05/23 09:22:45;;;;;;;2.55;2.33;;;19.40;37.10;;;;;;6215774;23;20180;-85
2022/05/23 09:25:19;;;;;;;3.63;2.50;;;19.40;36.90;;;;;;6190977;23;20213;-85
2022/05/23 09:28:01;;;;;;;3.70;2.50;;;19.40;36.90;;;;;;6130509;23;20182;-85
2022/05/23 09:30:27;;;;;;;4.47;2.60;;;19.40;37.10;;;;;;6132886;23;20191;-84
2022/05/23 09:33:09;;;;;;;3.45;2.10;;;19.40;37.00;;;;;;6129997;23;20151;-84
2022/05/23 09:35:50;;;;;;;2.67;1.90;;;19.40;36.90;;;;;;6104500;23;20183;-84
2022/05/23 09:38:26;;;;;;;3.50;2.20;;;19.40;36.90;;;;;;6129154;23;20628;-84
2022/05/23 09:40:51;;;;;;;3.33;2.45;;;19.40;36.90;;;;;;6105459;23;20218;-84
2022/05/23 09:49:07;;;;;;;2.63;2.35;;;19.40;37.00;;;;;;6143728;23;20151;-84
2022/05/23 09:51:51;;;;;;;6.75;2.50;;;19.40;37.00;;;;;;6114059;23;20183;-85
2022/05/23 09:54:22;;;;;;;4.45;2.30;;;19.30;37.10;;;;;;6161501;23;20151;-84
2022/05/23 09:56:48;;;;;;;3.08;2.42;;;19.30;37.20;;;;;;6104602;23;20179;-84
2022/05/23 09:59:34;;;;;;;2.60;2.20;;;19.40;37.10;;;;;;6166653;23;20523;-84
2022/05/23 10:02:21;;;;;;;4.13;2.50;;;19.50;37.00;;;;;;6189982;23;20130;-87
2022/05/23 10:04:49;;;;;;;3.30;2.22;;;19.50;36.80;;;;;;6193682;23;20142;-85
2022/05/23 10:07:28;;;;;;;4.40;2.38;;;19.60;36.70;;;;;;6190697;23;20131;-84
2022/05/23 10:09:59;;;;;;;4.65;2.50;;;19.60;36.60;;;;;;6190278;23;20130;-84
2022/05/23 10:12:25;;;;;;;2.50;2.30;;;19.60;36.50;;;;;;6165966;23;20170;-84
2022/05/23 10:14:52;;;;;;;4.00;2.40;;;19.60;36.50;;;;;;6165170;23;20142;-85
2022/05/23 10:17:35;;;;;;;3.83;2.45;;;19.60;36.50;;;;;;6165110;23;20197;-85
2022/05/23 10:20:31;;;;;;;5.50;2.33;;;19.60;36.60;;;;;;6214528;23;20130;-84
2022/05/23 10:23:04;;;;;;;2.60;2.30;;;19.60;36.50;;;;;;6216392;23;20229;-85
2022/05/23 10:25:43;;;;;;;3.25;2.33;;;19.60;36.70;;;;;;6190936;23;20449;-85
2022/05/23 10:28:15;;;;;;;4.18;2.30;;;19.60;36.50;;;;;;6215411;23;20146;-84
2022/05/23 10:30:44;;;;;;;2.65;2.40;;;19.60;36.40;;;;;;6214699;23;20135;-84
2022/05/23 10:33:12;;;;;;;3.88;2.35;;;19.60;36.50;;;;;;6190668;23;20138;-84
2022/05/23 10:35:44;;;;;;;2.47;2.28;;;19.60;36.40;;;;;;6190067;23;20138;-84
2022/05/23 10:43:27;;;;;;;2.83;2.33;;;19.60;36.50;;;;;;6192849;23;20130;-84
2022/05/23 10:45:57;;;;;;;2.63;2.35;;;19.60;36.60;;;;;;6189096;23;20558;-84
2022/05/23 10:48:38;;;;;;;3.78;2.22;;;19.60;36.50;;;;;;6164771;23;20184;-84
2022/05/23 10:51:15;;;;;;;2.90;2.25;;;19.70;36.60;;;;;;6193466;23;20580;-84
2022/05/23 10:53:53;;;;;;;2.97;2.30;;;19.60;36.60;;;;;;6216213;23;20246;-84
2022/05/23 10:56:31;;;;;;;2.38;2.15;;;19.60;36.60;;;;;;6216122;23;20134;-84
2022/05/23 10:58:59;;;;;;;4.78;2.22;;;19.60;36.60;;;;;;6216282;23;20554;-84
2022/05/23 11:01:41;;;;;;;3.90;2.20;;;19.60;36.40;;;;;;6167391;23;20146;-84
2022/05/23 11:04:40;;;;;;;3.92;2.50;;;19.70;36.30;;;;;;6216230;23;20180;-84
2022/05/23 11:07:41;;;;;;;3.15;2.30;;;19.70;36.30;;;;;;6216072;23;20170;-84
2022/05/23 11:10:21;;;;;;;2.95;2.22;;;19.70;36.40;;;;;;6216466;23;20463;-84
2022/05/23 11:13:01;;;;;;;2.83;2.25;;;19.70;36.50;;;;;;6216825;23;20213;-84
2022/05/23 11:15:53;;;;;;;3.50;2.30;;;19.70;36.50;;;;;;6193523;23;20574;-84
2022/05/23 11:18:31;;;;;;;2.85;2.50;;;19.70;36.50;;;;;;6217297;23;20174;-85
2022/05/23 11:20:58;;;;;;;3.10;2.00;;;19.70;36.30;;;;;;6192350;23;20215;-84
2022/05/23 11:23:43;;;;;;;3.08;2.40;;;19.70;36.30;;;;;;6167054;23;20146;-84
2022/05/23 11:26:26;;;;;;;2.40;2.20;;;19.70;36.60;;;;;;6216931;23;20127;-84
2022/05/23 11:34:30;;;;;;;2.58;2.38;;;19.70;36.50;;;;;;6196262;23;20134;-85
2022/05/23 11:37:42;;;;;;;2.78;2.40;;;19.60;36.60;;;;;;6197666;23;20197;-86
2022/05/23 11:39:49;;;;;;;3.65;2.60;;;19.60;36.60;;;;;;6203258;23;20158;-85
2022/05/23 11:42:27;;;;;;;2.50;2.22;;;19.60;36.50;;;;;;6170406;23;20150;-86
2022/05/23 11:44:54;;;;;;;2.25;2.05;;;19.60;36.60;;;;;;6220889;23;20137;-87
2022/05/23 11:47:25;;;;;;;2.80;2.50;;;19.60;36.40;;;;;;6196695;23;20162;-87
2022/05/23 11:50:06;;;;;;;2.65;2.45;;;19.70;36.40;;;;;;6199351;23;20126;-86
2022/05/23 11:52:34;;;;;;;2.55;2.35;;;19.70;36.40;;;;;;6201297;23;20461;-86
2022/05/23 11:54:59;;;;;;;2.70;2.38;;;19.70;36.30;;;;;;6200240;23;20169;-87
2022/05/23 11:57:41;;;;;;;3.45;2.30;;;19.70;36.20;;;;;;6178497;23;20178;-86
2022/05/23 12:00:39;;;;;;;2.30;2.10;;;19.70;36.30;;;;;;6178071;23;20414;-87
2022/05/23 12:03:10;;;;;;;2.40;2.20;;;19.70;36.30;;;;;;6227699;23;20635;-86
2022/05/23 12:05:35;;;;;;;4.07;2.75;;;19.60;36.40;;;;;;6200900;23;20150;-87
2022/05/23 12:08:05;;;;;;;2.30;2.10;;;19.60;36.70;;;;;;6202342;23;20197;-87
2022/05/23 12:10:39;;;;;;;2.65;2.40;;;19.70;36.60;;;;;;6201051;23;20168;-87
2022/05/23 12:13:26;;;;;;;2.92;2.47;;;19.70;36.60;;;;;;6170396;23;20141;-86
2022/05/23 12:15:54;;;;;;;2.75;2.28;;;19.60;36.50;;;;;;6202577;23;20135;-86
2022/05/23 12:18:39;;;;;;;2.78;2.47;;;19.60;36.60;;;;;;6139947;23;20214;-87
2022/05/23 12:21:27;;;;;;;3.50;2.33;;;19.70;36.40;;;;;;6114414;23;20148;-86
2022/05/23 12:24:10;;;;;;;2.80;2.45;;;19.70;36.50;;;;;;6120220;23;20152;-85
2022/05/23 12:26:37;;;;;;;2.60;2.40;;;19.80;36.60;;;;;;6088877;23;20595;-87
2022/05/23 12:29:39;;;;;;;3.42;2.22;;;19.70;36.60;;;;;;6138553;23;20147;-87
2022/05/23 12:32:25;;;;;;;5.45;2.70;;;19.70;36.60;;;;;;6146737;23;20151;-87
2022/05/23 12:34:52;;;;;;;8.02;2.38;;;19.70;36.80;;;;;;6116226;23;20147;-86
2022/05/23 12:37:42;;;;;;;6.38;2.83;;;19.70;36.60;;;;;;6116283;23;20227;-87
2022/05/23 12:40:31;;;;;;;5.88;2.60;;;19.70;36.70;;;;;;6162427;23;20147;-87
2022/05/23 12:43:09;;;;;;;5.60;2.63;;;19.70;36.80;;;;;;6090193;23;20144;-86
2022/05/23 12:45:51;;;;;;;6.28;2.80;;;19.70;36.60;;;;;;6112455;23;20159;-86
2022/05/23 12:48:28;;;;;;;5.13;2.70;;;19.70;36.60;;;;;;6115413;23;20151;-85
2022/05/23 12:51:32;;;;;;;8.18;2.80;;;19.80;36.70;;;;;;6218081;23;20161;-86
2022/05/23 12:54:14;;;;;;;7.75;2.63;;;19.80;36.80;;;;;;6219681;23;20149;-86
2022/05/23 12:56:50;;;;;;;4.95;2.90;;;19.70;37.10;;;;;;6217890;23;20166;-86
2022/05/23 12:59:43;;;;;;;9.15;2.65;;;19.70;37.20;;;;;;6194329;23;20562;-86
2022/05/23 13:02:14;;;;;;;6.70;2.88;;;19.70;37.30;;;;;;6173832;23;20149;-86
2022/05/23 13:04:47;;;;;;;4.85;2.40;;;19.60;37.30;;;;;;6195556;23;20146;-86
2022/05/23 13:07:19;;;;;;;8.05;2.78;;;19.60;37.60;;;;;;6171133;23;20578;-86
2022/05/23 13:09:49;;;;;;;5.63;2.40;;;19.60;37.80;;;;;;6173620;23;20142;-87
2022/05/23 13:12:23;;;;;;;4.78;2.70;;;19.60;37.80;;;;;;6199234;23;20131;-86
2022/05/23 13:14:54;;;;;;;6.03;2.47;;;19.60;37.60;;;;;;6173590;23;20149;-86
2022/05/23 13:17:37;;;;;;;4.35;2.78;;;19.70;37.70;;;;;;6172858;23;20269;-86
2022/05/23 13:23:20;;;;;;;3.88;2.60;;;19.70;37.60;;;;;;6201423;23;20154;-86
2022/05/23 13:25:48;;;;;;;5.50;2.80;;;19.70;37.60;;;;;;6171975;23;20138;-86
2022/05/23 13:28:24;;;;;;;3.13;2.67;;;19.70;37.80;;;;;;6194375;23;20184;-86
2022/05/23 13:30:53;;;;;;;8.43;2.63;;;19.70;37.70;;;;;;6170551;23;20142;-87
2022/05/23 13:33:36;;;;;;;;;;;;;;;;;;;;;
2022/05/23 13:36:06;;;;;;;6.07;2.60;;;19.70;37.70;;;;;;6182113;23;20607;-85
2022/05/23 13:38:43;;;;;;;9.27;3.00;;;19.80;37.70;;;;;;6207627;23;20496;-85
2022/05/23 13:41:26;;;;;;;7.82;2.78;;;19.70;38.00;;;;;;6185164;23;20191;-86
2022/05/23 13:43:53;;;;;;;7.97;2.60;;;19.70;38.00;;;;;;6205956;23;20133;-85
2022/05/23 13:46:37;;;;;;;6.32;2.55;;;19.70;38.20;;;;;;6230248;23;20595;-85
2022/05/23 13:49:19;;;;;;;8.32;2.97;;;19.70;38.40;;;;;;6208210;23;20133;-86
2022/05/23 13:51:51;;;;;;;5.90;2.80;;;19.70;38.30;;;;;;6207587;23;20204;-85
2022/05/23 13:54:28;;;;;;;5.55;2.72;;;19.70;38.30;;;;;;6178762;23;20245;-86
2022/05/23 13:57:05;;;;;;;5.55;2.70;;;19.70;38.20;;;;;;6202584;23;20161;-86
2022/05/23 13:59:34;;;;;;;5.70;2.83;;;19.70;38.10;;;;;;6135593;23;20277;-86
2022/05/23 14:02:08;;;;;;;4.07;2.80;;;19.70;38.40;;;;;;6112883;23;20154;-86